Time;durP1;ratioP1;P1;durP2;ratioP2;P2;SDS_P1;SDS_P2;PMS_P1;PMS_P2;Temp;Humidity;BMP_temperature;BMP_pressure;BME280_temperature;BME280_humidity;BME280_pressure;Samples;Min_cycle;Max_cycle;Signal;HPM_P1;HPM_P2
2021/06/18 00:01:49;;;;;;;;;;;25.30;92.90;;;;;;5077471;28;20028;-69
2021/06/18 00:04:14;;;;;;;8.85;6.93;;;25.40;92.90;;;;;;5095870;28;19915;-68
2021/06/18 00:06:40;;;;;;;6.95;6.00;;;25.40;92.70;;;;;;5097100;28;20465;-68
2021/06/18 00:09:05;;;;;;;8.05;5.45;;;25.30;92.70;;;;;;5097456;28;20028;-69
2021/06/18 00:11:31;;;;;;;;;;;25.40;91.90;;;;;;5078463;28;20020;-68
2021/06/18 00:13:56;;;;;;;9.35;5.57;;;25.30;92.20;;;;;;5095555;28;20066;-68
2021/06/18 00:16:23;;;;;;;8.18;5.75;;;25.30;92.40;;;;;;5095196;28;20024;-68
2021/06/18 00:18:48;;;;;;;10.52;5.30;;;25.40;92.20;;;;;;5094956;28;20016;-68
2021/06/18 00:21:14;;;;;;;;;;;25.30;91.60;;;;;;5095761;28;20350;-68
2021/06/18 00:23:39;;;;;;;9.98;5.20;;;25.40;91.60;;;;;;5094868;28;19904;-68
2021/06/18 00:26:05;;;;;;;;;;;25.40;91.70;;;;;;5077017;28;20031;-68
2021/06/18 00:28:31;;;;;;;7.95;5.32;;;25.30;91.20;;;;;;5094283;28;20002;-68
2021/06/18 00:30:57;;;;;;;7.72;5.63;;;25.30;91.10;;;;;;5076479;28;20028;-69
2021/06/18 00:33:22;;;;;;;7.32;5.00;;;25.30;91.00;;;;;;5076112;28;20066;-68
2021/06/18 00:35:48;;;;;;;;;;;25.30;90.90;;;;;;5095044;28;20377;-68
2021/06/18 00:38:14;;;;;;;6.97;5.25;;;25.30;90.90;;;;;;5094010;28;19919;-68
2021/06/18 00:40:40;;;;;;;7.63;5.60;;;25.20;90.90;;;;;;5094033;28;20052;-68
2021/06/18 00:43:05;;;;;;;6.32;4.97;;;25.30;91.00;;;;;;5094367;28;20111;-68
2021/06/18 00:45:31;;;;;;;;;;;25.20;90.90;;;;;;5094471;28;20024;-68
2021/06/18 00:48:00;;;;;;;7.65;4.80;;;25.20;91.20;;;;;;5094071;28;20287;-68
2021/06/18 00:50:28;;;;;;;7.07;5.60;;;25.30;91.10;;;;;;5094304;28;20479;-68
2021/06/18 00:52:54;;;;;;;7.32;5.50;;;25.50;91.00;;;;;;5094658;28;20016;-67
2021/06/18 00:55:19;;;;;;;;;;;25.50;90.50;;;;;;5076259;28;20020;-68
2021/06/18 00:57:46;;;;;;;8.73;5.50;;;25.40;90.70;;;;;;5075647;28;19904;-68
2021/06/18 01:00:12;;;;;;;6.70;4.90;;;25.30;90.60;;;;;;5075675;28;20028;-68
2021/06/18 01:02:39;;;;;;;9.00;5.45;;;25.30;91.50;;;;;;5076573;28;20028;-69
2021/06/18 01:05:12;;;;;;;7.85;6.05;;;25.20;91.80;;;;;;5093509;28;20058;-68
2021/06/18 01:08:07;;;;;;;7.80;6.35;;;25.10;92.60;;;;;;5093909;28;20059;-68
2021/06/18 01:10:50;;;;;;;9.77;5.97;;;24.90;93.10;;;;;;5093813;28;20028;-68
2021/06/18 01:13:35;;;;;;;7.18;6.45;;;24.80;93.60;;;;;;5094128;28;20026;-67
2021/06/18 01:16:18;;;;;;;7.72;6.30;;;24.70;94.10;;;;;;5093903;28;20537;-68
2021/06/18 01:19:08;;;;;;;8.68;6.40;;;24.70;94.30;;;;;;5093783;28;20024;-69
2021/06/18 01:21:46;;;;;;;9.27;7.10;;;24.70;94.00;;;;;;5094165;28;20485;-69
2021/06/18 01:24:36;;;;;;;7.97;6.65;;;24.70;94.10;;;;;;5094109;28;20077;-68
2021/06/18 01:27:37;;;;;;;10.23;7.45;;;24.60;94.50;;;;;;5093642;28;20054;-68
2021/06/18 01:30:05;;;;;;;8.50;7.15;;;24.50;95.10;;;;;;5089272;28;20039;-68
2021/06/18 01:33:01;;;;;;;8.75;7.82;;;24.40;95.60;;;;;;5093826;28;20024;-68
2021/06/18 01:35:36;;;;;;;9.38;8.45;;;24.30;96.60;;;;;;5075142;28;20387;-68
2021/06/18 01:38:06;;;;;;;11.45;8.90;;;24.20;97.30;;;;;;5093341;28;20345;-68
2021/06/18 01:40:32;;;;;;;12.57;9.77;;;24.20;98.20;;;;;;5075181;28;20028;-69
2021/06/18 01:43:01;;;;;;;13.75;10.85;;;24.10;98.90;;;;;;5093412;28;20020;-69
2021/06/18 01:45:28;;;;;;;12.05;10.77;;;24.10;99.40;;;;;;5075142;28;20028;-69
2021/06/18 01:47:56;;;;;;;13.55;11.35;;;24.10;99.90;;;;;;5093337;28;20418;-69
2021/06/18 01:50:25;;;;;;;14.77;10.52;;;24.10;99.90;;;;;;5093155;28;20469;-68
2021/06/18 01:53:15;;;;;;;14.90;11.77;;;24.00;99.90;;;;;;5075697;28;20549;-67
2021/06/18 01:55:42;;;;;;;16.35;11.43;;;23.90;99.90;;;;;;5093449;28;20028;-69
2021/06/18 01:58:10;;;;;;;13.27;11.30;;;23.90;99.90;;;;;;5093025;28;20024;-68
2021/06/18 02:00:44;;;;;;;13.18;11.88;;;23.80;99.90;;;;;;5075029;28;20615;-68
2021/06/18 02:03:13;;;;;;;13.52;11.30;;;23.80;99.90;;;;;;5093504;28;20035;-68
2021/06/18 02:05:40;;;;;;;15.32;12.45;;;23.70;99.90;;;;;;5074843;28;20032;-69
2021/06/18 02:08:10;;;;;;;13.68;12.27;;;23.70;99.90;;;;;;5074993;28;20473;-68
2021/06/18 02:10:39;;;;;;;20.58;12.45;;;23.70;99.90;;;;;;5093397;28;20449;-69
2021/06/18 02:13:07;;;;;;;13.48;12.02;;;23.70;99.90;;;;;;5093494;28;20027;-68
2021/06/18 02:15:35;;;;;;;17.38;11.82;;;23.70;99.90;;;;;;5093012;28;20024;-68
2021/06/18 02:18:01;;;;;;;18.33;11.98;;;23.60;99.90;;;;;;5093030;28;20461;-68
2021/06/18 02:20:29;;;;;;;16.92;11.80;;;23.60;99.90;;;;;;5093336;28;20578;-69
2021/06/18 02:22:55;;;;;;;13.02;11.65;;;23.70;99.90;;;;;;5093687;28;20468;-69
2021/06/18 02:25:23;;;;;;;16.15;11.35;;;23.60;99.90;;;;;;5092911;28;20374;-69
2021/06/18 02:27:50;;;;;;;13.93;11.43;;;23.60;99.90;;;;;;5093024;28;20023;-69
2021/06/18 02:30:16;;;;;;;11.88;10.38;;;23.70;99.90;;;;;;5093137;28;20048;-68
2021/06/18 02:32:49;;;;;;;13.82;11.18;;;23.70;99.90;;;;;;5093354;28;20099;-68
2021/06/18 02:35:15;;;;;;;12.32;10.73;;;23.70;99.90;;;;;;5074797;28;20024;-68
2021/06/18 02:37:41;;;;;;;13.30;11.20;;;23.70;99.90;;;;;;5093133;28;20388;-68
2021/06/18 02:40:06;;;;;;;;;;;23.70;99.90;;;;;;5097104;28;20035;-68
2021/06/18 02:42:32;;;;;;;11.50;10.35;;;23.70;99.90;;;;;;5096796;28;19943;-68
2021/06/18 02:44:58;;;;;;;;;;;23.70;99.90;;;;;;5096902;28;20580;-68
2021/06/18 02:47:57;;;;;;;11.98;10.45;;;23.70;99.90;;;;;;5078142;28;19911;-68
2021/06/18 02:50:29;;;;;;;12.15;9.93;;;23.70;99.90;;;;;;5096006;28;20026;-68
2021/06/18 02:53:15;;;;;;;11.65;10.45;;;23.70;99.90;;;;;;5096839;28;20035;-68
2021/06/18 02:55:51;;;;;;;10.43;9.25;;;23.70;99.90;;;;;;5096720;28;20107;-68
2021/06/18 02:58:32;;;;;;;12.35;9.95;;;23.70;99.90;;;;;;5096332;28;20035;-69
2021/06/18 03:01:01;;;;;;;11.90;9.10;;;23.70;99.90;;;;;;5096200;28;20074;-69
2021/06/18 03:03:32;;;;;;;11.60;9.13;;;23.70;99.90;;;;;;5096151;28;20039;-68
2021/06/18 03:06:01;;;;;;;10.50;8.48;;;23.60;99.90;;;;;;5096263;28;20065;-69
2021/06/18 03:08:34;;;;;;;10.60;9.13;;;23.60;99.90;;;;;;5095846;28;20214;-68
2021/06/18 03:11:01;;;;;;;10.25;8.82;;;23.60;99.90;;;;;;5096820;28;20364;-68
2021/06/18 03:13:32;;;;;;;10.48;8.50;;;23.60;99.90;;;;;;5096252;28;20083;-68
2021/06/18 03:15:59;;;;;;;9.38;8.23;;;23.60;99.90;;;;;;5078224;28;20020;-68
2021/06/18 03:18:26;;;;;;;10.60;8.40;;;23.60;99.90;;;;;;5095848;28;20101;-67
2021/06/18 03:20:56;;;;;;;14.02;8.63;;;23.60;99.90;;;;;;5077723;28;20024;-68
2021/06/18 03:23:23;;;;;;;9.73;7.75;;;23.60;99.90;;;;;;5095826;28;20069;-68
2021/06/18 03:25:49;;;;;;;13.65;7.95;;;23.60;99.50;;;;;;5095622;28;20074;-67
2021/06/18 03:28:16;;;;;;;8.95;7.57;;;23.60;99.50;;;;;;5095650;28;20027;-68
2021/06/18 03:30:47;;;;;;;11.13;7.55;;;23.60;99.20;;;;;;5095500;28;20445;-68
2021/06/18 03:33:13;;;;;;;7.95;7.15;;;23.70;99.20;;;;;;5077310;28;20392;-68
2021/06/18 03:35:39;;;;;;;8.85;7.20;;;23.70;98.90;;;;;;5095357;28;20031;-67
2021/06/18 03:38:05;;;;;;;8.63;7.32;;;23.70;98.70;;;;;;5095502;28;20036;-68
2021/06/18 03:40:34;;;;;;;13.05;7.00;;;23.70;98.20;;;;;;5095353;28;20107;-69
2021/06/18 03:43:00;;;;;;;8.65;6.55;;;23.70;97.80;;;;;;5095204;28;20103;-68
2021/06/18 03:45:25;;;;;;;;;;;23.70;97.50;;;;;;5095604;28;20023;-68
2021/06/18 03:47:52;;;;;;;7.55;5.78;;;23.70;96.90;;;;;;5077181;28;19911;-68
2021/06/18 03:50:21;;;;;;;7.30;6.10;;;23.80;96.70;;;;;;5095045;28;20020;-68
2021/06/18 03:52:47;;;;;;;6.70;6.00;;;23.80;96.40;;;;;;5095251;28;20024;-68
2021/06/18 03:55:14;;;;;;;;;;;23.80;96.10;;;;;;5095531;28;20051;-69
2021/06/18 03:57:41;;;;;;;6.65;5.50;;;23.80;95.90;;;;;;5095277;28;19908;-68
2021/06/18 04:00:08;;;;;;;8.23;5.63;;;23.90;95.60;;;;;;5095032;28;20082;-69
2021/06/18 04:02:36;;;;;;;8.45;5.55;;;23.90;95.20;;;;;;5095009;28;20094;-68
2021/06/18 04:05:03;;;;;;;7.72;5.63;;;23.90;95.00;;;;;;5077637;28;20135;-68
2021/06/18 04:07:30;;;;;;;9.57;5.63;;;23.90;94.90;;;;;;5095712;28;20047;-68
2021/06/18 04:09:57;;;;;;;9.55;4.68;;;24.00;94.60;;;;;;5094647;28;20081;-68
2021/06/18 04:12:23;;;;;;;10.20;6.95;;;24.00;94.40;;;;;;5095710;28;20044;-68
2021/06/18 04:14:49;;;;;;;;;;;24.00;94.60;;;;;;5095194;28;20039;-68
2021/06/18 04:17:14;;;;;;;6.60;5.20;;;24.00;94.30;;;;;;5094579;28;19991;-68
2021/06/18 04:19:41;;;;;;;;;;;24.00;94.20;;;;;;5094960;28;20028;-69
2021/06/18 04:22:10;;;;;;;6.28;4.53;;;24.00;94.10;;;;;;5094508;28;19908;-68
2021/06/18 04:24:36;;;;;;;6.35;4.60;;;24.00;93.90;;;;;;5076347;28;20028;-68
2021/06/18 04:27:01;;;;;;;;;;;24.00;93.90;;;;;;5094801;28;20380;-68
2021/06/18 04:29:27;;;;;;;10.50;4.88;;;24.00;93.80;;;;;;5095427;28;20361;-69
2021/06/18 04:31:53;;;;;;;;;;;24.00;93.80;;;;;;5094757;28;20044;-69
2021/06/18 04:34:19;;;;;;;6.45;4.25;;;24.00;93.80;;;;;;5076100;28;19908;-68
2021/06/18 04:36:45;;;;;;;11.32;4.72;;;24.10;93.70;;;;;;5095128;28;20044;-68
2021/06/18 04:39:11;;;;;;;8.82;5.32;;;24.10;93.70;;;;;;5093986;28;20043;-68
2021/06/18 04:41:36;;;;;;;;;;;24.10;93.70;;;;;;5094586;28;20039;-68
2021/06/18 04:44:03;;;;;;;5.80;4.15;;;24.10;93.60;;;;;;5094615;28;20330;-68
2021/06/18 04:46:29;;;;;;;5.75;4.15;;;24.10;93.90;;;;;;5094011;28;20085;-68
2021/06/18 04:48:55;;;;;;;;;;;24.20;93.70;;;;;;5094364;28;20028;-68
2021/06/18 04:51:20;;;;;;;5.38;4.32;;;24.20;93.50;;;;;;5094019;28;19904;-68
2021/06/18 04:53:47;;;;;;;;;;;24.20;93.40;;;;;;5094506;28;20096;-68
2021/06/18 04:56:12;;;;;;;5.35;3.90;;;24.20;93.30;;;;;;5093984;28;19911;-67
2021/06/18 04:58:38;;;;;;;;;;;24.20;93.20;;;;;;5094223;28;20412;-68
2021/06/18 05:01:05;;;;;;;7.90;4.10;;;24.30;93.20;;;;;;5093382;28;20363;-67
2021/06/18 05:03:31;;;;;;;6.60;4.03;;;24.30;93.20;;;;;;5093357;28;20028;-67
2021/06/18 05:05:56;;;;;;;;;;;24.40;93.00;;;;;;5094041;28;20036;-68
2021/06/18 05:08:22;;;;;;;7.40;3.90;;;24.40;92.90;;;;;;5093693;28;19910;-68
2021/06/18 05:10:47;;;;;;;;;;;24.40;92.80;;;;;;5094350;28;20103;-67
2021/06/18 05:13:13;;;;;;;6.28;3.90;;;24.50;92.80;;;;;;5093754;28;19923;-67
2021/06/18 05:15:39;;;;;;;;;;;24.50;92.60;;;;;;5094492;28;20024;-68
2021/06/18 05:18:04;;;;;;;5.43;3.60;;;24.60;92.60;;;;;;5093341;28;19904;-68
2021/06/18 05:20:30;;;;;;;;;;;24.60;92.50;;;;;;5093826;28;20036;-68
2021/06/18 05:22:56;;;;;;;5.70;3.40;;;24.70;92.30;;;;;;5093359;28;20010;-68
2021/06/18 05:25:21;;;;;;;;;;;24.80;92.10;;;;;;5093695;28;20450;-67
2021/06/18 05:27:47;;;;;;;5.10;3.80;;;24.80;91.90;;;;;;5093323;28;20404;-67
2021/06/18 05:30:14;;;;;;;;;;;24.80;91.80;;;;;;5093725;28;20043;-69
2021/06/18 05:32:40;;;;;;;9.57;4.80;;;24.90;91.90;;;;;;5093398;28;19904;-68
2021/06/18 05:35:06;;;;;;;;;;;25.00;91.90;;;;;;5093757;28;20027;-67
2021/06/18 05:37:31;;;;;;;5.43;3.53;;;25.00;92.00;;;;;;5093278;28;19912;-68
2021/06/18 05:39:57;;;;;;;;;;;25.10;92.00;;;;;;5113629;22;20173;-66
2021/06/18 05:42:22;;;;;;;6.57;2.97;;;25.10;91.70;;;;;;5097048;28;19945;-68
2021/06/18 05:44:48;;;;;;;6.03;3.30;;;25.20;91.70;;;;;;5116376;28;20034;-65
2021/06/18 05:47:14;;;;;;;;;;;25.20;91.50;;;;;;5112771;28;20020;-64
2021/06/18 05:49:39;;;;;;;8.45;4.03;;;25.30;91.60;;;;;;5112495;28;20351;-64
2021/06/18 05:52:05;;;;;;;;;;;25.30;91.60;;;;;;5095988;28;20020;-62
2021/06/18 05:54:30;;;;;;;4.90;3.05;;;25.40;91.40;;;;;;5113910;28;19994;-63
2021/06/18 05:56:56;;;;;;;;;;;25.40;91.30;;;;;;5096820;28;20034;-65
2021/06/18 05:59:22;;;;;;;5.85;4.65;;;25.50;91.50;;;;;;5114247;28;19915;-64
2021/06/18 06:01:47;;;;;;;5.95;3.45;;;25.50;91.30;;;;;;5113970;28;20035;-64
2021/06/18 06:04:13;;;;;;;;;;;25.60;90.90;;;;;;5114166;28;20024;-64
2021/06/18 06:06:39;;;;;;;8.15;3.50;;;25.70;91.10;;;;;;5113806;28;19904;-63
2021/06/18 06:09:05;;;;;;;8.02;3.47;;;25.80;91.20;;;;;;5113789;28;20102;-66
2021/06/18 06:11:30;;;;;;;;;;;25.90;91.30;;;;;;5114000;28;20016;-64
2021/06/18 06:14:04;;;;;;;5.53;3.00;;;25.90;91.10;;;;;;5115961;28;19979;-65
2021/06/18 06:16:34;;;;;;;14.77;3.40;;;26.00;90.80;;;;;;5099266;28;20028;-65
2021/06/18 06:19:01;;;;;;;8.80;3.17;;;26.20;90.20;;;;;;5117445;28;20498;-65
2021/06/18 06:21:27;;;;;;;4.68;2.97;;;26.30;90.00;;;;;;5099263;28;20020;-65
2021/06/18 06:23:53;;;;;;;7.05;2.85;;;26.40;90.00;;;;;;5117536;28;20429;-65
2021/06/18 06:26:20;;;;;;;9.30;3.33;;;26.40;89.80;;;;;;5117591;28;20019;-65
2021/06/18 06:28:46;;;;;;;11.45;3.50;;;26.40;89.00;;;;;;5099071;28;20069;-65
2021/06/18 06:31:11;;;;;;;5.35;3.10;;;26.50;89.40;;;;;;5117376;28;20023;-65
2021/06/18 06:33:37;;;;;;;7.18;3.15;;;26.50;89.70;;;;;;5117157;28;20448;-64
2021/06/18 06:36:03;;;;;;;7.18;3.30;;;26.50;89.20;;;;;;5117542;28;20028;-66
2021/06/18 06:38:29;;;;;;;7.03;3.25;;;26.70;88.80;;;;;;5118375;28;20664;-65
2021/06/18 06:40:55;;;;;;;3.67;3.20;;;26.80;87.80;;;;;;5102147;28;20069;-65
2021/06/18 06:43:21;;;;;;;4.15;2.95;;;26.80;87.10;;;;;;5099144;28;20480;-65
2021/06/18 06:45:47;;;;;;;7.13;3.00;;;26.90;86.20;;;;;;5117307;28;20043;-64
2021/06/18 06:48:13;;;;;;;7.97;3.35;;;27.10;86.60;;;;;;5117001;28;20437;-66
2021/06/18 06:50:39;;;;;;;4.78;3.22;;;27.20;85.90;;;;;;5117113;28;20054;-65
2021/06/18 06:53:07;;;;;;;5.95;3.33;;;27.30;85.90;;;;;;5099302;28;20023;-64
2021/06/18 06:55:36;;;;;;;7.05;3.40;;;27.40;86.20;;;;;;5118333;28;20414;-63
2021/06/18 06:58:02;;;;;;;8.98;4.00;;;27.40;86.10;;;;;;5117213;28;20043;-65
2021/06/18 07:00:28;;;;;;;4.93;3.60;;;27.50;86.20;;;;;;5116920;28;20447;-64
2021/06/18 07:02:53;;;;;;;5.40;3.20;;;27.60;86.20;;;;;;5098204;28;20027;-64
2021/06/18 07:05:19;;;;;;;10.32;3.80;;;27.70;85.40;;;;;;5116693;28;20023;-64
2021/06/18 07:07:45;;;;;;;6.75;3.13;;;27.80;85.00;;;;;;5116618;28;20434;-65
2021/06/18 07:10:12;;;;;;;4.82;3.63;;;27.90;84.60;;;;;;5098284;28;20027;-65
2021/06/18 07:12:37;;;;;;;7.68;3.65;;;27.90;84.10;;;;;;5116803;28;20074;-65
2021/06/18 07:15:04;;;;;;;4.72;3.90;;;28.00;83.80;;;;;;5122374;28;20024;-64
2021/06/18 07:17:30;;;;;;;7.55;4.10;;;28.10;84.10;;;;;;5124832;28;20045;-64
2021/06/18 07:19:57;;;;;;;6.07;3.78;;;28.20;83.40;;;;;;5100393;28;20020;-64
2021/06/18 07:22:23;;;;;;;6.57;3.20;;;28.30;83.00;;;;;;5116603;28;20476;-66
2021/06/18 07:24:50;;;;;;;5.30;4.38;;;28.30;83.20;;;;;;5115387;28;20547;-65
2021/06/18 07:27:16;;;;;;;9.32;3.85;;;28.30;82.80;;;;;;5116465;28;20511;-65
2021/06/18 07:29:43;;;;;;;6.35;3.70;;;28.50;82.40;;;;;;5116013;28;20024;-65
2021/06/18 07:32:10;;;;;;;6.50;3.70;;;28.80;81.70;;;;;;5116291;28;20024;-65
2021/06/18 07:34:35;;;;;;;5.60;3.67;;;29.00;81.70;;;;;;5116131;28;20048;-66
2021/06/18 07:37:01;;;;;;;13.13;4.63;;;29.00;81.10;;;;;;5116146;28;20077;-66
2021/06/18 07:39:27;;;;;;;5.82;3.58;;;29.10;81.30;;;;;;5115897;28;20438;-66
2021/06/18 07:41:53;;;;;;;8.13;3.88;;;29.30;81.30;;;;;;5115950;28;20030;-66
2021/06/18 07:44:18;;;;;;;5.22;3.50;;;29.40;80.20;;;;;;5098363;28;20392;-67
2021/06/18 07:46:44;;;;;;;7.78;3.80;;;30.10;78.60;;;;;;5098141;28;20450;-67
2021/06/18 07:49:10;;;;;;;4.97;3.63;;;30.60;78.00;;;;;;5116453;28;20091;-67
2021/06/18 07:51:36;;;;;;;6.10;3.47;;;30.90;77.10;;;;;;5116166;28;20026;-65
2021/06/18 07:54:01;;;;;;;7.13;3.85;;;30.90;77.10;;;;;;5115871;28;20436;-65
2021/06/18 07:56:30;;;;;;;5.70;3.40;;;30.80;76.80;;;;;;5115825;28;20084;-65
2021/06/18 07:58:56;;;;;;;8.00;3.65;;;30.80;76.30;;;;;;5115767;28;20031;-64
2021/06/18 08:01:21;;;;;;;5.50;3.72;;;30.80;76.30;;;;;;5115653;28;20024;-66
2021/06/18 08:03:48;;;;;;;6.80;3.95;;;30.80;76.00;;;;;;5115634;28;20023;-66
2021/06/18 08:06:13;;;;;;;6.10;4.03;;;30.70;76.10;;;;;;5115409;28;20024;-66
2021/06/18 08:08:40;;;;;;;5.80;4.13;;;31.10;76.20;;;;;;5115522;28;20020;-66
2021/06/18 08:11:06;;;;;;;5.43;3.72;;;31.10;76.10;;;;;;5115476;28;20094;-66
2021/06/18 08:13:32;;;;;;;6.40;3.90;;;31.10;76.10;;;;;;5115363;28;20098;-66
2021/06/18 08:15:58;;;;;;;6.70;3.60;;;31.00;75.60;;;;;;5115557;28;20023;-66
2021/06/18 08:18:23;;;;;;;7.70;3.63;;;30.80;75.90;;;;;;5115118;28;20038;-66
2021/06/18 08:20:49;;;;;;;9.35;4.28;;;30.60;76.30;;;;;;5115095;28;20129;-66
2021/06/18 08:23:14;;;;;;;6.00;3.70;;;30.50;76.20;;;;;;5114970;28;20019;-65
2021/06/18 08:25:40;;;;;;;7.60;4.57;;;30.30;77.20;;;;;;5115122;28;20034;-66
2021/06/18 08:28:06;;;;;;;10.27;4.22;;;30.10;77.50;;;;;;5115067;28;20024;-66
2021/06/18 08:30:32;;;;;;;5.88;4.00;;;29.90;77.60;;;;;;5114781;28;20027;-66
2021/06/18 08:32:58;;;;;;;5.68;4.78;;;30.00;78.90;;;;;;5114809;28;20023;-65
2021/06/18 08:35:23;;;;;;;6.88;3.88;;;30.20;78.60;;;;;;5114947;28;20496;-65
2021/06/18 08:37:50;;;;;;;6.60;4.35;;;31.00;77.30;;;;;;5114568;28;20024;-65
2021/06/18 08:40:16;;;;;;;7.47;4.40;;;32.60;74.60;;;;;;5096137;28;20035;-66
2021/06/18 08:42:42;;;;;;;7.90;4.25;;;33.20;72.20;;;;;;5096240;28;20031;-66
2021/06/18 08:45:09;;;;;;;7.38;4.07;;;33.50;71.40;;;;;;5114740;28;20023;-65
2021/06/18 08:47:35;;;;;;;10.23;4.72;;;34.40;69.30;;;;;;5115907;28;20028;-65
2021/06/18 08:50:01;;;;;;;7.38;4.20;;;35.80;67.00;;;;;;5098122;28;20023;-66
2021/06/18 08:52:27;;;;;;;7.78;4.10;;;36.40;65.10;;;;;;5121837;28;20073;-66
2021/06/18 08:54:54;;;;;;;6.93;3.97;;;37.20;63.40;;;;;;5097104;28;20030;-64
2021/06/18 08:57:22;;;;;;;7.82;4.15;;;38.60;61.30;;;;;;5114365;28;20160;-65
2021/06/18 08:59:49;;;;;;;7.63;4.30;;;40.10;58.40;;;;;;5114354;28;20022;-65
2021/06/18 09:02:15;;;;;;;5.50;4.43;;;39.70;57.10;;;;;;5097185;28;20027;-67
2021/06/18 09:05:04;;;;;;;8.60;4.45;;;40.40;56.10;;;;;;5115468;28;20100;-65
2021/06/18 09:07:46;;;;;;;5.53;4.53;;;41.50;54.90;;;;;;5117563;28;20076;-66
2021/06/18 09:10:40;;;;;;;7.75;4.40;;;42.40;53.10;;;;;;5098716;28;20043;-66
2021/06/18 09:13:17;;;;;;;5.63;4.30;;;42.30;52.50;;;;;;5117093;28;20035;-67
2021/06/18 09:15:51;;;;;;;6.72;4.60;;;42.70;50.80;;;;;;5117603;28;20031;-68
2021/06/18 09:18:27;;;;;;;11.40;5.75;;;42.80;50.90;;;;;;5118060;28;20383;-66
2021/06/18 09:21:11;;;;;;;8.55;5.00;;;42.70;50.20;;;;;;5118894;28;20068;-66
2021/06/18 09:23:52;;;;;;;7.35;4.40;;;41.90;50.50;;;;;;5114528;28;20023;-66
2021/06/18 09:26:20;;;;;;;12.88;5.30;;;41.70;51.20;;;;;;5114406;28;20476;-66
2021/06/18 09:29:11;;;;;;;7.57;4.95;;;41.60;51.30;;;;;;5114914;28;20111;-66
2021/06/18 09:31:41;;;;;;;7.60;5.30;;;41.50;51.30;;;;;;5114610;28;20158;-65
2021/06/18 09:34:08;;;;;;;8.10;4.60;;;41.20;51.40;;;;;;5096186;28;20028;-66
2021/06/18 09:36:35;;;;;;;5.43;4.35;;;40.00;51.50;;;;;;5114432;28;20019;-66
2021/06/18 09:39:04;;;;;;;8.80;4.45;;;39.20;52.60;;;;;;5114090;28;20032;-66
2021/06/18 09:41:45;;;;;;;5.80;5.15;;;38.20;53.80;;;;;;5113997;28;20072;-65
2021/06/18 09:44:18;;;;;;;8.10;4.93;;;38.90;53.50;;;;;;5113825;28;20379;-66
2021/06/18 09:46:49;;;;;;;8.73;5.28;;;40.20;52.30;;;;;;5095548;28;20539;-66
2021/06/18 09:49:34;;;;;;;7.30;5.25;;;41.30;51.60;;;;;;5094884;28;20099;-67
2021/06/18 09:52:06;;;;;;;6.83;4.77;;;42.40;50.50;;;;;;5113870;28;20046;-66
2021/06/18 09:54:38;;;;;;;7.70;4.70;;;42.10;49.90;;;;;;5113873;28;20073;-66
2021/06/18 09:57:14;;;;;;;9.07;5.32;;;41.60;50.60;;;;;;5113746;28;20045;-66
2021/06/18 09:59:56;;;;;;;7.70;4.88;;;41.20;51.10;;;;;;5113758;28;20034;-67
2021/06/18 10:02:41;;;;;;;7.70;5.25;;;40.30;51.80;;;;;;5095199;28;20118;-66
2021/06/18 10:05:14;;;;;;;7.13;5.30;;;39.30;53.00;;;;;;5113578;28;20024;-66
2021/06/18 10:07:40;;;;;;;7.25;5.03;;;39.10;53.50;;;;;;5114863;28;20028;-66
2021/06/18 10:10:09;;;;;;;7.10;5.03;;;38.60;54.00;;;;;;5114350;28;20024;-66
2021/06/18 10:12:37;;;;;;;7.00;4.78;;;38.40;54.30;;;;;;5114278;28;20032;-65
2021/06/18 10:15:06;;;;;;;7.70;5.40;;;38.70;53.90;;;;;;5113990;28;20032;-66
2021/06/18 10:17:36;;;;;;;6.85;5.03;;;39.30;53.20;;;;;;5095411;28;20027;-66
2021/06/18 10:20:05;;;;;;;6.65;5.25;;;39.30;53.80;;;;;;5114949;28;20030;-66
2021/06/18 10:22:32;;;;;;;6.38;5.65;;;38.40;53.30;;;;;;5116781;28;20015;-65
2021/06/18 10:25:03;;;;;;;9.02;5.60;;;37.30;54.90;;;;;;5121109;28;20046;-66
2021/06/18 10:27:56;;;;;;;8.73;5.25;;;36.10;55.70;;;;;;5117793;28;20098;-65
2021/06/18 10:30:31;;;;;;;8.32;6.30;;;35.70;56.80;;;;;;5113786;28;20027;-66
2021/06/18 10:32:59;;;;;;;6.85;5.93;;;35.30;57.90;;;;;;5095853;28;20020;-66
2021/06/18 10:36:07;;;;;;;6.63;5.47;;;35.40;57.90;;;;;;5114248;28;20035;-66
2021/06/18 10:38:45;;;;;;;13.63;5.65;;;35.60;57.80;;;;;;5113365;28;20032;-66
2021/06/18 10:41:16;;;;;;;5.60;5.10;;;35.80;58.20;;;;;;5113780;28;20106;-66
2021/06/18 10:43:47;;;;;;;6.55;5.45;;;35.90;57.70;;;;;;5113485;28;20105;-66
2021/06/18 10:46:15;;;;;;;7.65;5.22;;;35.90;57.90;;;;;;5113621;28;20023;-66
2021/06/18 10:48:47;;;;;;;6.05;5.45;;;36.20;58.20;;;;;;5096072;28;20073;-66
2021/06/18 10:51:34;;;;;;;12.15;5.80;;;36.60;57.90;;;;;;5095519;28;20050;-67
2021/06/18 10:54:05;;;;;;;6.22;5.63;;;36.60;57.00;;;;;;5113369;28;20068;-67
2021/06/18 10:56:46;;;;;;;9.75;5.90;;;36.80;57.20;;;;;;5113209;28;20027;-68
2021/06/18 10:59:11;;;;;;;6.85;5.45;;;37.40;56.40;;;;;;5113530;28;20156;-66
2021/06/18 11:01:37;;;;;;;7.80;5.40;;;37.50;55.80;;;;;;5099370;28;20168;-67
2021/06/18 11:04:04;;;;;;;8.13;5.38;;;38.00;55.50;;;;;;5117568;28;20068;-66
2021/06/18 11:06:48;;;;;;;6.30;5.25;;;38.40;54.10;;;;;;5117781;28;20095;-66
2021/06/18 11:09:33;;;;;;;9.18;5.50;;;38.00;54.40;;;;;;5117472;28;20019;-65
2021/06/18 11:12:22;;;;;;;7.05;5.75;;;37.70;55.00;;;;;;5116958;28;20080;-67
2021/06/18 11:14:48;;;;;;;7.10;5.68;;;36.70;56.10;;;;;;5098359;28;20024;-66
2021/06/18 11:17:39;;;;;;;6.13;5.53;;;36.60;57.20;;;;;;5116706;28;20023;-67
2021/06/18 11:20:07;;;;;;;7.07;5.07;;;36.20;56.70;;;;;;5098243;28;20019;-66
2021/06/18 11:22:42;;;;;;;6.60;5.10;;;35.90;57.20;;;;;;5116426;28;20035;-65
2021/06/18 11:25:37;;;;;;;6.65;5.18;;;35.80;55.90;;;;;;5116900;28;20103;-67
2021/06/18 11:28:21;;;;;;;10.68;4.80;;;35.80;56.70;;;;;;5116932;28;20020;-66
2021/06/18 11:31:21;;;;;;;7.18;5.45;;;35.80;56.80;;;;;;5116561;28;20027;-66
2021/06/18 11:33:53;;;;;;;6.90;5.70;;;36.00;57.10;;;;;;5107392;28;20023;-65
2021/06/18 11:36:22;;;;;;;6.30;5.15;;;36.40;57.50;;;;;;5098072;28;20111;-66
2021/06/18 11:39:16;;;;;;;8.93;5.90;;;36.20;56.70;;;;;;5138575;22;20114;-68
2021/06/18 11:41:46;;;;;;;9.20;5.78;;;35.70;57.90;;;;;;5071846;28;20036;-68
2021/06/18 11:44:16;;;;;;;11.43;5.78;;;35.70;57.40;;;;;;5074763;28;20043;-68
2021/06/18 11:46:42;;;;;;;7.75;5.43;;;35.10;58.00;;;;;;5074657;28;20024;-67
2021/06/18 11:49:12;;;;;;;7.65;5.32;;;35.10;58.00;;;;;;5074854;28;20036;-68
2021/06/18 11:51:39;;;;;;;8.68;5.32;;;35.00;57.70;;;;;;5074684;28;20105;-68
2021/06/18 11:54:05;;;;;;;7.07;5.43;;;34.70;57.90;;;;;;5074459;28;20028;-68
2021/06/18 11:56:33;;;;;;;10.48;6.13;;;34.70;58.60;;;;;;5056607;28;20028;-68
2021/06/18 11:58:58;;;;;;;11.15;5.70;;;34.70;59.40;;;;;;5074458;28;20020;-68
2021/06/18 12:01:32;;;;;;;9.00;5.40;;;34.60;58.90;;;;;;5074397;28;20091;-67
2021/06/18 12:03:59;;;;;;;8.63;5.15;;;34.70;59.50;;;;;;5056210;28;20411;-68
2021/06/18 12:06:26;;;;;;;8.57;5.20;;;34.80;58.60;;;;;;5074805;28;20330;-67
2021/06/18 12:09:03;;;;;;;8.75;5.30;;;34.70;58.50;;;;;;5074648;28;20017;-68
2021/06/18 12:11:38;;;;;;;5.97;5.18;;;34.70;58.20;;;;;;5055912;28;20017;-67
2021/06/18 12:14:05;;;;;;;7.75;6.13;;;34.70;58.10;;;;;;5074262;28;20027;-67
2021/06/18 12:16:33;;;;;;;9.52;6.55;;;34.70;58.40;;;;;;5074301;28;20017;-68
2021/06/18 12:19:26;;;;;;;13.15;7.00;;;34.70;61.10;;;;;;5075029;28;20024;-68
2021/06/18 12:22:16;;;;;;;15.30;7.20;;;34.80;62.50;;;;;;5074612;28;20031;-68
2021/06/18 12:24:44;;;;;;;10.88;6.32;;;34.80;62.90;;;;;;5061696;28;20049;-68
2021/06/18 12:27:15;;;;;;;10.48;7.03;;;34.60;62.70;;;;;;5074303;28;20016;-67
2021/06/18 12:29:49;;;;;;;8.20;6.50;;;34.40;63.00;;;;;;5074165;28;20021;-67
2021/06/18 12:32:15;;;;;;;11.77;6.70;;;34.20;63.70;;;;;;5072199;28;20016;-67
2021/06/18 12:34:50;;;;;;;10.70;7.53;;;34.10;64.10;;;;;;5055592;28;20035;-68
2021/06/18 12:37:18;;;;;;;13.35;7.70;;;33.90;64.70;;;;;;5073879;28;20028;-68
2021/06/18 12:40:29;;;;;;;9.48;7.43;;;34.00;65.50;;;;;;5073602;28;20048;-68
2021/06/18 12:42:57;;;;;;;11.32;8.20;;;34.10;65.00;;;;;;5074050;28;20094;-68
2021/06/18 12:45:30;;;;;;;12.50;7.85;;;34.20;65.20;;;;;;5073549;28;20116;-67
2021/06/18 12:48:17;;;;;;;10.52;6.90;;;34.20;65.30;;;;;;5074032;28;20100;-67
2021/06/18 12:50:51;;;;;;;7.85;7.03;;;34.30;64.50;;;;;;5073714;28;20145;-67
2021/06/18 12:53:32;;;;;;;12.82;6.65;;;34.30;65.20;;;;;;5073820;28;20025;-68
2021/06/18 12:56:14;;;;;;;7.47;6.68;;;34.30;65.10;;;;;;5073086;28;20024;-67
2021/06/18 12:58:41;;;;;;;11.15;6.45;;;34.40;64.70;;;;;;5073421;28;20388;-67
2021/06/18 13:01:08;;;;;;;6.85;6.15;;;34.40;64.20;;;;;;5074095;28;20099;-67
2021/06/18 13:03:57;;;;;;;9.55;6.47;;;34.40;63.90;;;;;;5073254;28;20021;-68
2021/06/18 13:06:25;;;;;;;11.07;6.10;;;34.40;63.20;;;;;;5026970;28;20047;-68
2021/06/18 13:08:58;;;;;;;8.77;6.13;;;34.50;63.30;;;;;;5072987;28;20452;-67